createdAt,value
2023-05-22T00:00:02.305Z,15.90
2023-05-22T00:02:43.191Z,15.90
2023-05-22T00:05:13.410Z,15.90
2023-05-22T00:07:43.832Z,15.90
2023-05-22T00:10:12.829Z,15.80
2023-05-22T00:12:41.712Z,15.70
2023-05-22T00:15:11.658Z,15.70
2023-05-22T00:17:42.414Z,15.60
2023-05-22T00:20:12.119Z,15.60
2023-05-22T00:22:41.097Z,15.50
2023-05-22T00:25:11.496Z,15.50
2023-05-22T00:27:40.388Z,15.50
2023-05-22T00:30:10.170Z,15.50
2023-05-22T00:32:39.204Z,15.50
2023-05-22T00:35:11.145Z,15.50
2023-05-22T00:37:39.981Z,15.60
2023-05-22T00:40:10.213Z,15.50
2023-05-22T00:42:39.356Z,15.50
2023-05-22T00:45:09.489Z,15.40
2023-05-22T00:47:38.404Z,15.30
2023-05-22T00:50:11.100Z,15.20
2023-05-22T00:52:42.628Z,15.10
2023-05-22T00:55:12.678Z,15.10
2023-05-22T00:57:43.050Z,15.00
2023-05-22T01:00:14.355Z,15.00
2023-05-22T01:02:43.428Z,15.00
2023-05-22T01:05:18.366Z,14.90
2023-05-22T01:07:47.538Z,14.90
2023-05-22T01:10:16.312Z,14.90
2023-05-22T01:13:38.239Z,14.80
2023-05-22T01:16:14.469Z,14.80
2023-05-22T01:18:48.165Z,14.80
2023-05-22T01:21:23.349Z,14.70
2023-05-22T01:24:22.511Z,14.70
2023-05-22T01:27:26.266Z,14.60
2023-05-22T01:30:14.504Z,14.50
2023-05-22T01:32:47.953Z,14.50
2023-05-22T01:35:20.127Z,14.40
2023-05-22T01:37:50.767Z,14.40
2023-05-22T01:40:20.074Z,14.40
2023-05-22T01:42:49.035Z,14.40
2023-05-22T01:45:17.857Z,14.50
2023-05-22T01:47:48.653Z,14.40
2023-05-22T01:50:19.738Z,14.40
2023-05-22T01:53:08.072Z,14.30
2023-05-22T01:55:45.483Z,14.20
2023-05-22T01:58:22.731Z,14.20
2023-05-22T02:00:54.887Z,14.10
2023-05-22T02:03:31.644Z,14.00
2023-05-22T02:06:03.579Z,14.00
2023-05-22T02:08:33.282Z,13.90
2023-05-22T02:11:03.450Z,13.80
2023-05-22T02:13:35.842Z,13.70
2023-05-22T02:16:05.707Z,13.70
2023-05-22T02:18:35.964Z,13.60
2023-05-22T02:21:08.674Z,13.60
2023-05-22T02:23:38.059Z,13.50
2023-05-22T02:26:07.348Z,13.50
2023-05-22T02:28:36.186Z,13.50
2023-05-22T02:31:05.032Z,13.40
2023-05-22T02:33:33.795Z,13.40
2023-05-22T02:36:04.589Z,13.30
2023-05-22T02:38:33.285Z,13.30
2023-05-22T02:41:02.624Z,13.30
2023-05-22T02:43:31.329Z,13.40
2023-05-22T02:46:00.178Z,13.40
2023-05-22T02:48:29.840Z,13.40
2023-05-22T02:50:58.631Z,13.30
2023-05-22T02:53:29.464Z,13.40
2023-05-22T02:55:59.153Z,13.40
2023-05-22T02:58:28.019Z,13.30
2023-05-22T03:00:57.174Z,13.30
2023-05-22T03:03:26.289Z,13.40
2023-05-22T03:05:58.508Z,13.40
2023-05-22T03:08:29.773Z,13.40
2023-05-22T03:10:59.576Z,13.30
2023-05-22T03:13:28.598Z,13.30
2023-05-22T03:15:57.437Z,13.30
2023-05-22T03:18:27.636Z,13.20
2023-05-22T03:20:57.311Z,13.20
2023-05-22T03:23:26.489Z,13.20
2023-05-22T03:25:57.298Z,13.20
2023-05-22T03:28:29.583Z,13.20
2023-05-22T03:30:58.638Z,13.20
2023-05-22T03:33:32.329Z,13.20
2023-05-22T03:36:01.407Z,13.20
2023-05-22T03:38:30.223Z,13.20
2023-05-22T03:41:00.482Z,13.20
2023-05-22T03:43:29.259Z,13.30
2023-05-22T03:45:59.456Z,13.40
2023-05-22T03:48:29.365Z,13.40
2023-05-22T03:50:58.211Z,13.50
2023-05-22T03:53:26.944Z,13.50
2023-05-22T03:55:58.046Z,13.60
2023-05-22T03:58:28.431Z,13.60
2023-05-22T04:00:58.815Z,13.70
2023-05-22T04:03:28.382Z,13.70
2023-05-22T04:05:58.696Z,13.90
2023-05-22T04:08:27.673Z,14.00
2023-05-22T04:10:56.586Z,14.10
2023-05-22T04:13:25.940Z,14.20
2023-05-22T04:15:56.889Z,14.30
2023-05-22T04:18:25.593Z,14.40
2023-05-22T04:20:54.293Z,14.40
2023-05-22T04:23:23.704Z,14.60
2023-05-22T04:25:53.562Z,14.60
2023-05-22T04:28:23.518Z,14.70
2023-05-22T04:30:52.517Z,14.80
2023-05-22T04:33:22.851Z,14.90
2023-05-22T04:35:54.645Z,15.00
2023-05-22T04:38:26.457Z,15.10
2023-05-22T04:42:10.840Z,15.30
2023-05-22T04:44:39.579Z,15.70
2023-05-22T04:47:11.635Z,16.60
2023-05-22T04:49:42.541Z,17.20
2023-05-22T04:52:11.720Z,17.90
2023-05-22T04:54:41.512Z,18.50
2023-05-22T04:57:10.796Z,19.00
2023-05-22T04:59:41.528Z,19.50
2023-05-22T05:02:11.023Z,20.00
2023-05-22T05:04:41.476Z,20.50
2023-05-22T05:07:10.275Z,20.90
2023-05-22T05:09:39.474Z,21.30
2023-05-22T05:12:08.862Z,21.70
2023-05-22T05:14:37.840Z,22.10
2023-05-22T05:17:06.813Z,22.30
2023-05-22T05:19:37.003Z,22.70
2023-05-22T05:22:08.546Z,22.90
2023-05-22T05:25:04.392Z,23.20
2023-05-22T05:27:33.373Z,23.40
2023-05-22T05:30:03.839Z,23.60
2023-05-22T05:32:48.257Z,23.80
2023-05-22T05:35:26.234Z,23.90
2023-05-22T05:38:17.220Z,24.00
2023-05-22T05:40:47.055Z,24.10
2023-05-22T05:43:16.709Z,24.10
2023-05-22T05:45:46.311Z,24.10
2023-05-22T05:48:18.037Z,24.10
2023-05-22T05:50:49.222Z,23.90
2023-05-22T05:53:19.517Z,23.80
2023-05-22T05:55:56.346Z,23.70
2023-05-22T05:58:25.163Z,23.70
2023-05-22T06:01:05.988Z,23.60
2023-05-22T06:03:35.609Z,23.60
2023-05-22T06:06:17.600Z,23.60
2023-05-22T06:09:16.606Z,23.70
2023-05-22T06:12:23.604Z,23.80
2023-05-22T06:14:52.314Z,23.70
2023-05-22T06:17:22.077Z,23.80
2023-05-22T06:19:54.320Z,23.80
2023-05-22T06:22:25.985Z,23.80
2023-05-22T06:24:57.280Z,23.80
2023-05-22T06:27:29.006Z,23.70
2023-05-22T06:29:57.974Z,23.60
2023-05-22T06:32:31.289Z,23.30
2023-05-22T06:35:00.571Z,23.20
2023-05-22T06:38:49.000Z,23.20
2023-05-22T06:41:39.929Z,23.20
2023-05-22T06:44:12.274Z,23.00
2023-05-22T06:46:41.544Z,22.80
2023-05-22T06:49:13.698Z,22.70
2023-05-22T06:51:52.292Z,22.80
2023-05-22T06:54:21.580Z,22.80
2023-05-22T06:56:55.635Z,22.90
2023-05-22T06:59:26.859Z,22.90
2023-05-22T07:02:01.064Z,23.00
2023-05-22T07:04:48.321Z,23.20
2023-05-22T07:07:27.508Z,23.20
2023-05-22T07:09:59.313Z,23.30
2023-05-22T07:13:00.301Z,23.40
2023-05-22T07:15:29.674Z,23.50
2023-05-22T07:18:00.152Z,23.60
2023-05-22T07:20:29.262Z,23.70
2023-05-22T07:23:19.842Z,23.70
2023-05-22T07:25:48.631Z,23.60
2023-05-22T07:28:20.031Z,23.60
2023-05-22T07:31:04.343Z,23.70
2023-05-22T07:33:33.169Z,23.70
2023-05-22T07:36:02.224Z,23.80
2023-05-22T07:38:36.479Z,23.80
2023-05-22T07:41:06.261Z,23.80
2023-05-22T07:43:37.622Z,23.80
2023-05-22T07:46:07.482Z,23.90
2023-05-22T07:48:44.917Z,23.90
2023-05-22T07:51:14.445Z,23.90
2023-05-22T07:53:44.099Z,24.00
2023-05-22T07:56:13.590Z,24.00
2023-05-22T07:58:44.367Z,24.00
2023-05-22T08:01:13.374Z,24.10
2023-05-22T08:03:42.161Z,24.10
2023-05-22T08:06:11.015Z,24.20
2023-05-22T08:08:39.936Z,24.40
2023-05-22T08:11:08.736Z,24.40
2023-05-22T08:13:38.855Z,24.50
2023-05-22T08:16:17.461Z,24.50
2023-05-22T08:18:46.142Z,24.50
2023-05-22T08:21:14.930Z,24.50
2023-05-22T08:23:43.695Z,24.60
2023-05-22T08:26:12.466Z,24.70
2023-05-22T08:28:44.284Z,24.80
2023-05-22T08:31:16.524Z,24.90
2023-05-22T08:33:45.329Z,25.10
2023-05-22T08:36:14.561Z,25.10
2023-05-22T08:38:43.290Z,25.20
2023-05-22T08:41:12.912Z,25.20
2023-05-22T08:43:42.899Z,25.30
2023-05-22T08:46:11.976Z,25.30
2023-05-22T08:48:42.442Z,25.30
2023-05-22T08:51:16.619Z,25.10
2023-05-22T08:53:47.039Z,25.10
2023-05-22T08:56:16.751Z,25.00
2023-05-22T08:58:46.203Z,25.00
2023-05-22T09:01:15.979Z,25.00
2023-05-22T09:03:49.515Z,25.10
2023-05-22T09:06:18.804Z,25.10
2023-05-22T09:08:49.412Z,25.20
2023-05-22T09:11:19.724Z,25.20
2023-05-22T09:13:49.315Z,25.20
2023-05-22T09:16:46.870Z,25.40
2023-05-22T09:20:07.029Z,25.50
2023-05-22T09:22:39.685Z,25.70
2023-05-22T09:25:09.520Z,25.70
2023-05-22T09:27:38.706Z,25.70
2023-05-22T09:30:19.267Z,25.80
2023-05-22T09:32:53.340Z,25.80
2023-05-22T09:35:34.412Z,25.80
2023-05-22T09:38:13.449Z,25.70
2023-05-22T09:40:45.718Z,25.60
2023-05-22T09:43:19.548Z,25.60
2023-05-22T09:45:57.593Z,25.60
2023-05-22T09:48:27.203Z,25.60
2023-05-22T09:50:57.144Z,25.50
2023-05-22T09:53:29.937Z,25.40
2023-05-22T09:56:02.235Z,25.50
2023-05-22T09:58:35.409Z,25.60
2023-05-22T10:01:05.537Z,25.80
2023-05-22T10:03:35.947Z,26.00
2023-05-22T10:06:05.770Z,26.10
2023-05-22T10:08:53.323Z,26.20
2023-05-22T10:11:22.882Z,26.20
2023-05-22T10:13:52.266Z,26.10
2023-05-22T10:16:22.156Z,26.10
2023-05-22T10:18:51.386Z,26.10
2023-05-22T10:21:21.301Z,26.00
2023-05-22T10:23:52.493Z,26.10
2023-05-22T10:26:21.932Z,26.30
2023-05-22T10:29:00.905Z,26.40
2023-05-22T10:31:45.861Z,26.40
2023-05-22T10:34:32.297Z,26.40
2023-05-22T10:37:21.260Z,26.50
2023-05-22T10:40:04.450Z,26.50
2023-05-22T10:42:33.651Z,26.50
2023-05-22T10:45:03.180Z,26.60
2023-05-22T10:47:34.931Z,26.70
2023-05-22T10:50:10.207Z,26.80
2023-05-22T10:52:39.834Z,26.80
2023-05-22T10:55:12.973Z,26.60
2023-05-22T10:57:42.151Z,26.60
2023-05-22T11:00:13.386Z,26.70
2023-05-22T11:02:45.100Z,26.80
2023-05-22T11:05:41.219Z,26.90
2023-05-22T11:08:34.481Z,27.20
2023-05-22T11:11:12.854Z,27.40
2023-05-22T11:13:45.182Z,27.60
2023-05-22T11:16:17.808Z,27.80
2023-05-22T11:18:47.250Z,27.90
2023-05-22T11:21:16.906Z,28.10
2023-05-22T11:23:46.682Z,28.40
2023-05-22T11:26:26.334Z,28.70
2023-05-22T11:28:56.997Z,28.80
2023-05-22T11:31:27.011Z,28.70
2023-05-22T11:33:56.393Z,28.50
2023-05-22T11:36:25.384Z,28.40
2023-05-22T11:39:11.499Z,28.40
2023-05-22T11:41:52.439Z,28.30
2023-05-22T11:44:21.856Z,28.20
2023-05-22T11:46:54.595Z,28.10
2023-05-22T11:49:25.498Z,28.20
2023-05-22T11:51:54.428Z,28.40
2023-05-22T11:54:24.357Z,28.60
2023-05-22T11:56:54.870Z,28.50
2023-05-22T11:59:26.963Z,28.40
2023-05-22T12:01:58.911Z,28.30
2023-05-22T12:04:27.598Z,28.30
2023-05-22T12:06:57.129Z,28.20
2023-05-22T12:09:31.565Z,28.20
2023-05-22T12:12:02.046Z,28.20
2023-05-22T12:14:32.452Z,28.20
2023-05-22T12:17:02.163Z,28.30
2023-05-22T12:19:31.436Z,28.40
2023-05-22T12:22:00.736Z,28.40
2023-05-22T12:24:39.670Z,28.40
2023-05-22T12:27:12.266Z,28.40
2023-05-22T12:29:41.962Z,28.50
2023-05-22T12:32:13.275Z,28.50
2023-05-22T12:34:46.627Z,28.60
2023-05-22T12:37:23.127Z,28.70
2023-05-22T12:39:56.733Z,28.70
2023-05-22T12:42:27.992Z,28.60
2023-05-22T12:45:01.632Z,28.60
2023-05-22T12:47:30.588Z,28.60
2023-05-22T12:49:59.448Z,28.70
2023-05-22T12:52:28.293Z,28.70
2023-05-22T12:54:57.022Z,28.60
2023-05-22T12:57:27.165Z,28.50
2023-05-22T12:59:56.220Z,28.50
2023-05-22T13:02:25.106Z,28.70
2023-05-22T13:05:10.508Z,28.80
2023-05-22T13:07:39.779Z,28.90
2023-05-22T13:10:40.281Z,29.00
2023-05-22T13:13:14.257Z,29.10
2023-05-22T13:15:43.577Z,29.10
2023-05-22T13:18:13.053Z,29.00
2023-05-22T13:20:41.885Z,29.00
2023-05-22T13:23:13.996Z,29.10
2023-05-22T13:25:51.844Z,29.20
2023-05-22T13:28:25.555Z,29.20
2023-05-22T13:30:54.975Z,29.30
2023-05-22T13:33:23.823Z,29.50
2023-05-22T13:35:52.850Z,29.50
2023-05-22T13:38:21.612Z,29.60
2023-05-22T13:40:50.388Z,29.80
2023-05-22T13:43:19.193Z,30.20
2023-05-22T13:45:51.603Z,30.50
2023-05-22T13:48:20.392Z,30.80
2023-05-22T13:50:51.197Z,31.10
2023-05-22T13:53:21.646Z,31.30
2023-05-22T13:55:50.857Z,31.30
2023-05-22T13:58:19.512Z,31.20
2023-05-22T14:00:48.351Z,30.80
2023-05-22T14:03:19.929Z,30.60
2023-05-22T14:05:48.752Z,30.20
2023-05-22T14:08:17.612Z,30.00
2023-05-22T14:10:46.552Z,29.80
2023-05-22T14:13:15.438Z,29.60
2023-05-22T14:15:46.982Z,29.40
2023-05-22T14:18:17.781Z,29.30
2023-05-22T14:20:50.942Z,29.10
2023-05-22T14:23:20.081Z,28.90
2023-05-22T14:25:49.291Z,28.80
2023-05-22T14:28:18.396Z,28.80
2023-05-22T14:30:47.384Z,28.80
2023-05-22T14:33:17.612Z,28.80
2023-05-22T14:35:46.159Z,28.80
2023-05-22T14:38:15.111Z,28.80
2023-05-22T14:40:44.004Z,28.90
2023-05-22T14:43:12.727Z,29.00
2023-05-22T14:45:41.576Z,29.10
2023-05-22T14:48:11.614Z,29.10
2023-05-22T14:50:41.709Z,29.20
2023-05-22T14:53:10.254Z,29.30
2023-05-22T14:55:38.993Z,29.50
2023-05-22T14:58:07.692Z,29.70
2023-05-22T15:00:36.520Z,29.80
2023-05-22T15:03:05.623Z,30.00
2023-05-22T15:05:34.224Z,30.10
2023-05-22T15:08:04.294Z,30.20
2023-05-22T15:10:32.873Z,30.30
2023-05-22T15:13:01.528Z,30.50
2023-05-22T15:15:29.949Z,30.70
2023-05-22T15:18:02.666Z,30.90
2023-05-22T15:20:31.471Z,31.00
2023-05-22T15:23:01.280Z,31.00
2023-05-22T15:25:33.957Z,31.00
2023-05-22T15:28:02.760Z,31.00
2023-05-22T15:30:35.518Z,31.00
2023-05-22T15:33:04.608Z,30.90
2023-05-22T15:35:33.451Z,30.70
2023-05-22T15:38:03.173Z,30.60
2023-05-22T15:40:33.506Z,30.60
2023-05-22T15:43:04.068Z,30.60
2023-05-22T15:45:33.061Z,30.60
2023-05-22T15:48:01.789Z,30.50
2023-05-22T15:50:30.418Z,30.40
2023-05-22T15:52:59.051Z,30.30
2023-05-22T15:55:27.571Z,30.20
2023-05-22T15:57:59.038Z,30.10
2023-05-22T16:00:28.497Z,30.10
2023-05-22T16:02:57.277Z,30.20
2023-05-22T16:05:26.155Z,30.20
2023-05-22T16:07:54.815Z,30.30
2023-05-22T16:10:23.273Z,30.30
2023-05-22T16:12:51.734Z,30.30
2023-05-22T16:15:21.834Z,30.30
2023-05-22T16:17:50.619Z,30.30
2023-05-22T16:20:20.312Z,30.30
2023-05-22T16:22:50.722Z,30.20
2023-05-22T16:25:19.736Z,30.00
2023-05-22T16:27:48.273Z,30.00
2023-05-22T16:30:18.246Z,29.90
2023-05-22T16:32:49.233Z,29.90
2023-05-22T16:35:19.745Z,30.00
2023-05-22T16:37:48.363Z,30.10
2023-05-22T16:40:17.674Z,30.20
2023-05-22T16:42:46.413Z,30.40
2023-05-22T16:45:15.017Z,30.70
2023-05-22T16:47:43.619Z,31.20
2023-05-22T16:50:13.928Z,31.90
2023-05-22T16:52:42.583Z,33.00
2023-05-22T16:55:11.571Z,34.40
2023-05-22T16:57:40.420Z,35.50
2023-05-22T17:00:11.034Z,36.20
2023-05-22T17:02:39.717Z,36.70
2023-05-22T17:05:09.260Z,37.20
2023-05-22T17:07:39.634Z,37.70
2023-05-22T17:10:09.247Z,38.30
2023-05-22T17:12:37.918Z,38.60
2023-05-22T17:15:07.553Z,38.80
2023-05-22T17:17:36.156Z,38.70
2023-05-22T17:20:06.864Z,38.70
2023-05-22T17:22:36.659Z,38.60
2023-05-22T17:25:08.198Z,38.00
2023-05-22T17:27:37.105Z,36.90
2023-05-22T17:30:07.715Z,36.10
2023-05-22T17:32:36.487Z,35.80
2023-05-22T17:35:06.844Z,35.90
2023-05-22T17:37:35.767Z,36.40
2023-05-22T17:40:04.919Z,36.90
2023-05-22T17:42:34.927Z,37.30
2023-05-22T17:45:03.626Z,37.20
2023-05-22T17:47:32.356Z,36.90
2023-05-22T17:50:01.183Z,36.70
2023-05-22T17:52:29.852Z,36.40
2023-05-22T17:54:58.486Z,36.00
2023-05-22T17:57:27.043Z,35.40
2023-05-22T17:59:57.171Z,34.60
2023-05-22T18:02:26.657Z,33.70
2023-05-22T18:04:55.532Z,32.70
2023-05-22T18:07:24.224Z,31.80
2023-05-22T18:09:52.823Z,31.00
2023-05-22T18:12:31.158Z,30.30
2023-05-22T18:15:02.071Z,29.60
2023-05-22T18:17:30.900Z,29.00
2023-05-22T18:19:59.734Z,28.60
2023-05-22T18:22:28.619Z,28.10
2023-05-22T18:24:57.441Z,27.70
2023-05-22T18:27:26.150Z,27.30
2023-05-22T18:29:55.572Z,26.90
2023-05-22T18:32:25.892Z,26.60
2023-05-22T18:34:54.872Z,26.30
2023-05-22T18:37:23.497Z,26.10
2023-05-22T18:39:52.380Z,25.80
2023-05-22T18:42:21.292Z,25.60
2023-05-22T18:44:50.698Z,25.40
2023-05-22T18:47:19.547Z,25.20
2023-05-22T18:49:49.710Z,25.10
2023-05-22T18:52:18.431Z,24.80
2023-05-22T18:54:47.088Z,24.60
2023-05-22T18:57:15.935Z,24.50
2023-05-22T18:59:46.231Z,24.30
2023-05-22T19:02:16.516Z,24.10
2023-05-22T19:04:45.783Z,23.90
2023-05-22T19:07:16.059Z,23.70
2023-05-22T19:09:44.778Z,23.60
2023-05-22T19:12:13.371Z,23.50
2023-05-22T19:14:42.998Z,23.40
2023-05-22T19:17:11.600Z,23.30
2023-05-22T19:19:40.288Z,23.30
2023-05-22T19:22:09.086Z,23.20
2023-05-22T19:24:39.178Z,23.10
2023-05-22T19:27:07.972Z,22.90
2023-05-22T19:29:36.876Z,22.80
2023-05-22T19:32:05.719Z,22.70
2023-05-22T19:34:34.468Z,22.60
2023-05-22T19:37:03.007Z,22.50
2023-05-22T19:39:31.506Z,22.40
2023-05-22T19:42:01.536Z,22.40
2023-05-22T19:44:30.327Z,22.30
2023-05-22T19:46:59.214Z,22.20
2023-05-22T19:49:28.056Z,22.10
2023-05-22T19:51:56.676Z,22.00
2023-05-22T19:54:25.574Z,21.90
2023-05-22T19:56:54.454Z,21.80
2023-05-22T19:59:24.710Z,21.70
2023-05-22T20:01:54.062Z,21.60
2023-05-22T20:04:23.340Z,21.60
2023-05-22T20:06:52.102Z,21.60
2023-05-22T20:09:20.837Z,21.50
2023-05-22T20:11:49.753Z,21.40
2023-05-22T20:14:18.624Z,21.30
2023-05-22T20:16:48.930Z,21.30
2023-05-22T20:19:17.866Z,21.20
2023-05-22T20:22:15.334Z,21.10
2023-05-22T20:24:43.988Z,21.00
2023-05-22T20:27:12.820Z,20.90
2023-05-22T20:29:41.610Z,20.90
2023-05-22T20:32:12.624Z,20.70
2023-05-22T20:34:41.478Z,20.60
2023-05-22T20:37:36.008Z,20.50
2023-05-22T20:40:05.376Z,20.40
2023-05-22T20:42:35.029Z,20.40
2023-05-22T20:45:03.954Z,20.40
2023-05-22T20:47:36.187Z,20.40
2023-05-22T20:50:06.293Z,20.30
2023-05-22T20:53:03.133Z,20.20
2023-05-22T20:55:35.238Z,20.30
2023-05-22T20:58:04.220Z,20.40
2023-05-22T21:00:35.148Z,20.40
2023-05-22T21:03:07.733Z,20.40
2023-05-22T21:05:36.939Z,20.40
2023-05-22T21:08:05.907Z,20.40
2023-05-22T21:10:34.900Z,20.40
2023-05-22T21:13:03.682Z,20.30
2023-05-22T21:15:32.510Z,20.30
2023-05-22T21:18:01.308Z,20.30
2023-05-22T21:20:31.632Z,20.30
2023-05-22T21:23:00.369Z,20.30
2023-05-22T21:25:29.239Z,20.30
2023-05-22T21:27:58.111Z,20.30
2023-05-22T21:30:26.833Z,20.30
2023-05-22T21:32:56.414Z,20.20
2023-05-22T21:35:25.411Z,20.20
2023-05-22T21:37:55.751Z,20.10
2023-05-22T21:40:24.894Z,20.10
2023-05-22T21:42:53.786Z,20.00
2023-05-22T21:45:22.848Z,19.90
2023-05-22T21:47:51.783Z,19.90
2023-05-22T21:50:20.719Z,19.80
2023-05-22T21:52:49.532Z,19.80
2023-05-22T21:55:19.787Z,19.70
2023-05-22T21:58:18.755Z,19.60
2023-05-22T22:00:47.497Z,19.50
2023-05-22T22:03:16.544Z,19.40
2023-05-22T22:05:45.521Z,19.40
2023-05-22T22:08:14.483Z,19.40
2023-05-22T22:10:45.096Z,19.30
2023-05-22T22:13:14.116Z,19.30
2023-05-22T22:15:43.170Z,19.20
2023-05-22T22:18:15.132Z,19.10
2023-05-22T22:20:45.543Z,19.10
2023-05-22T22:23:15.112Z,19.00
2023-05-22T22:25:45.568Z,19.00
2023-05-22T22:28:14.450Z,18.90
2023-05-22T22:30:43.387Z,19.00
2023-05-22T22:33:13.186Z,18.90
2023-05-22T22:35:42.547Z,18.90
2023-05-22T22:38:11.622Z,18.90
2023-05-22T22:40:40.828Z,18.80
2023-05-22T22:43:11.692Z,18.70
2023-05-22T22:45:41.205Z,18.60
2023-05-22T22:48:10.238Z,18.60
2023-05-22T22:50:39.322Z,18.60
2023-05-22T22:53:08.455Z,18.60
2023-05-22T22:55:37.742Z,18.60
2023-05-22T22:58:07.974Z,18.70
2023-05-22T23:00:38.204Z,18.70
2023-05-22T23:03:07.167Z,18.60
2023-05-22T23:05:36.189Z,18.60
2023-05-22T23:08:04.950Z,18.50
2023-05-22T23:10:34.031Z,18.50
2023-05-22T23:13:02.701Z,18.50
2023-05-22T23:15:31.887Z,18.50
2023-05-22T23:18:02.320Z,18.50
2023-05-22T23:20:31.243Z,18.40
2023-05-22T23:23:00.002Z,18.40
2023-05-22T23:25:28.654Z,18.40
2023-05-22T23:27:57.471Z,18.40
2023-05-22T23:30:26.451Z,18.40
2023-05-22T23:32:55.406Z,18.30
2023-05-22T23:35:26.347Z,18.30
2023-05-22T23:37:55.038Z,18.30
2023-05-22T23:40:24.086Z,18.20
2023-05-22T23:42:54.001Z,18.20
2023-05-22T23:45:23.075Z,18.10
2023-05-22T23:47:51.772Z,18.00
2023-05-22T23:50:20.463Z,17.90
2023-05-22T23:52:50.561Z,17.80
2023-05-22T23:55:19.336Z,17.80
2023-05-22T23:57:47.992Z,17.80
